createdAt,value
2024-04-15T00:02:19.783Z,99065.88
2024-04-15T00:04:48.064Z,99060.41
2024-04-15T00:07:16.593Z,99061.92
2024-04-15T00:09:46.567Z,99060.23
2024-04-15T00:12:14.762Z,99061.73
2024-04-15T00:14:42.799Z,99060.69
2024-04-15T00:17:11.879Z,99057.16
2024-04-15T00:19:39.945Z,99054.54
2024-04-15T00:22:08.106Z,99055.20
2024-04-15T00:24:36.261Z,99048.33
2024-04-15T00:27:04.854Z,99037.20
2024-04-15T00:29:32.838Z,99034.08
2024-04-15T00:32:00.976Z,99032.08
2024-04-15T00:34:29.214Z,99028.20
2024-04-15T00:36:57.280Z,99023.11
2024-04-15T00:39:28.531Z,99027.14
2024-04-15T00:41:56.616Z,99030.35
2024-04-15T00:44:35.104Z,99023.65
2024-04-15T00:47:04.365Z,99017.45
2024-04-15T00:49:33.512Z,99011.83
2024-04-15T00:52:04.012Z,99006.48
2024-04-15T00:54:33.952Z,98996.81
2024-04-15T00:57:03.408Z,98990.95
2024-04-15T00:59:31.824Z,98988.10
2024-04-15T01:02:00.532Z,98987.33
2024-04-15T01:04:28.758Z,98984.80
2024-04-15T01:06:57.754Z,98981.13
2024-04-15T01:09:26.106Z,98977.25
2024-04-15T01:11:54.227Z,98980.54
2024-04-15T01:14:22.882Z,98983.24
2024-04-15T01:16:51.163Z,98981.45
2024-04-15T01:19:19.276Z,98976.02
2024-04-15T01:21:47.352Z,98969.80
2024-04-15T01:24:15.587Z,98967.92
2024-04-15T01:26:49.494Z,98960.25
2024-04-15T01:29:17.572Z,98953.19
2024-04-15T01:31:45.558Z,98946.56
2024-04-15T01:34:13.598Z,98944.73
2024-04-15T01:36:41.780Z,98942.01
2024-04-15T01:39:09.905Z,98941.25
2024-04-15T01:41:40.055Z,98930.33
2024-04-15T01:44:08.096Z,98923.63
2024-04-15T01:46:36.049Z,98920.76
2024-04-15T01:49:04.300Z,98920.61
2024-04-15T01:51:32.610Z,98915.00
2024-04-15T01:54:00.924Z,98913.56
2024-04-15T01:56:28.968Z,98910.07
2024-04-15T01:58:57.083Z,98904.17
2024-04-15T02:01:25.188Z,98891.77
2024-04-15T02:03:56.989Z,98882.20
2024-04-15T02:06:25.202Z,98877.80
2024-04-15T02:08:53.225Z,98879.48
2024-04-15T02:11:21.140Z,98874.16
2024-04-15T02:13:49.277Z,98870.39
2024-04-15T02:16:18.284Z,98863.29
2024-04-15T02:18:46.340Z,98856.11
2024-04-15T02:21:15.247Z,98849.36
2024-04-15T02:23:43.262Z,98842.28
2024-04-15T02:26:11.288Z,98841.04
2024-04-15T02:28:39.390Z,98834.60
2024-04-15T02:31:07.597Z,98828.57
2024-04-15T02:33:35.740Z,98824.80
2024-04-15T02:36:04.134Z,98818.75
2024-04-15T02:38:32.179Z,98819.73
2024-04-15T02:41:00.255Z,98810.41
2024-04-15T02:43:28.336Z,98798.26
2024-04-15T02:45:56.355Z,98791.63
2024-04-15T02:48:24.521Z,98788.96
2024-04-15T02:50:52.659Z,98787.44
2024-04-15T02:53:20.781Z,98786.13
2024-04-15T02:55:51.551Z,98782.32
2024-04-15T02:58:19.691Z,98774.92
2024-04-15T03:00:47.799Z,98770.25
2024-04-15T03:03:15.862Z,98766.23
2024-04-15T03:05:47.436Z,98758.86
2024-04-15T03:08:15.592Z,98751.73
2024-04-15T03:10:43.725Z,98751.85
2024-04-15T03:13:11.962Z,98745.19
2024-04-15T03:15:40.081Z,98742.33
2024-04-15T03:18:08.101Z,98736.60
2024-04-15T03:20:36.235Z,98730.19
2024-04-15T03:23:04.438Z,98728.11
2024-04-15T03:25:32.432Z,98730.14
2024-04-15T03:28:00.602Z,98727.70
2024-04-15T03:30:28.735Z,98723.00
2024-04-15T03:32:56.823Z,98715.86
2024-04-15T03:35:24.923Z,98706.41
2024-04-15T03:37:53.110Z,98703.80
2024-04-15T03:40:21.201Z,98697.87
2024-04-15T03:42:49.341Z,98687.64
2024-04-15T03:45:18.153Z,98681.95
2024-04-15T03:47:46.153Z,98676.77
2024-04-15T03:50:14.291Z,98672.65
2024-04-15T03:52:42.570Z,98670.25
2024-04-15T03:55:10.607Z,98665.23
2024-04-15T03:57:39.349Z,98654.70
2024-04-15T04:00:08.149Z,98647.80
2024-04-15T04:02:36.173Z,98646.84
2024-04-15T04:05:06.485Z,98642.30
2024-04-15T04:07:38.792Z,98638.92
2024-04-15T04:10:09.324Z,98636.77
2024-04-15T04:12:39.504Z,98631.02
2024-04-15T04:15:07.722Z,98624.13
2024-04-15T04:17:35.866Z,98619.47
2024-04-15T04:20:04.379Z,98611.91
2024-04-15T04:22:32.502Z,98608.63
2024-04-15T04:25:00.738Z,98611.12
2024-04-15T04:27:28.924Z,98617.77
2024-04-15T04:29:57.008Z,98618.27
2024-04-15T04:32:25.190Z,98602.36
2024-04-15T04:34:53.237Z,98595.29
2024-04-15T04:37:21.361Z,98597.52
2024-04-15T04:39:51.779Z,98593.89
2024-04-15T04:42:19.850Z,98580.30
2024-04-15T04:44:47.976Z,98573.27
2024-04-15T04:47:17.164Z,98568.78
2024-04-15T04:49:45.391Z,98560.57
2024-04-15T04:52:13.540Z,98560.88
2024-04-15T04:54:41.941Z,98567.52
2024-04-15T04:57:10.000Z,98566.31
2024-04-15T04:59:38.938Z,98564.80
2024-04-15T05:02:08.120Z,98588.31
2024-04-15T05:04:36.372Z,98597.29
2024-04-15T05:07:04.575Z,98588.85
2024-04-15T05:09:32.899Z,98577.45
2024-04-15T05:12:00.962Z,98582.95
2024-04-15T05:14:29.732Z,98594.64
2024-04-15T05:16:59.102Z,98604.65
2024-04-15T05:19:27.459Z,98608.83
2024-04-15T05:21:55.531Z,98618.38
2024-04-15T05:24:24.853Z,98616.05
2024-04-15T05:26:55.226Z,98603.49
2024-04-15T05:29:23.975Z,98603.39
2024-04-15T05:31:52.081Z,98617.27
2024-04-15T05:34:20.655Z,98628.44
2024-04-15T05:36:48.896Z,98629.17
2024-04-15T05:39:17.054Z,98628.31
2024-04-15T05:41:45.178Z,98626.90
2024-04-15T05:44:13.426Z,98622.94
2024-04-15T05:46:50.392Z,98631.13
2024-04-15T05:49:19.691Z,98655.46
2024-04-15T05:51:48.395Z,98662.13
2024-04-15T05:54:17.447Z,98650.23
2024-04-15T05:56:46.114Z,98630.61
2024-04-15T05:59:14.198Z,98592.13
2024-04-15T06:01:42.574Z,98614.94
2024-04-15T06:04:10.673Z,98653.00
2024-04-15T06:06:38.750Z,98663.94
2024-04-15T06:09:06.817Z,98658.11
2024-04-15T06:11:34.934Z,98638.13
2024-04-15T06:14:03.523Z,98612.94
2024-04-15T06:16:31.971Z,98602.98
2024-04-15T06:19:00.551Z,98594.80
2024-04-15T06:21:28.720Z,98578.20
2024-04-15T06:23:56.852Z,98586.42
2024-04-15T06:26:25.075Z,98594.98
2024-04-15T06:28:53.155Z,98572.91
2024-04-15T06:31:21.486Z,98533.96
2024-04-15T06:33:49.697Z,98538.71
2024-04-15T06:36:17.754Z,98581.59
2024-04-15T06:38:46.779Z,98577.88
2024-04-15T06:41:15.585Z,98563.91
2024-04-15T06:43:43.667Z,98551.29
2024-04-15T06:46:15.179Z,98540.77
2024-04-15T06:48:44.631Z,98542.98
2024-04-15T06:51:12.903Z,98546.31
2024-04-15T06:53:42.161Z,98543.92
2024-04-15T06:56:11.646Z,98545.63
2024-04-15T06:58:39.796Z,98533.04
2024-04-15T07:01:08.025Z,98530.13
2024-04-15T07:03:36.282Z,98530.99
2024-04-15T07:06:04.968Z,98529.36
2024-04-15T07:08:33.093Z,98534.56
2024-04-15T07:11:02.750Z,98536.27
2024-04-15T07:13:32.764Z,98537.02
2024-04-15T07:16:00.938Z,98532.29
2024-04-15T07:18:29.147Z,98534.22
2024-04-15T07:20:57.104Z,98539.90
2024-04-15T07:23:27.752Z,98545.97
2024-04-15T07:25:57.685Z,98546.42
2024-04-15T07:28:26.342Z,98546.10
2024-04-15T07:31:02.452Z,98550.35
2024-04-15T07:33:33.402Z,98569.42
2024-04-15T07:36:02.114Z,98591.93
2024-04-15T07:38:30.248Z,98612.99
2024-04-15T07:41:01.030Z,98607.11
2024-04-15T07:43:31.588Z,98600.46
2024-04-15T07:45:59.689Z,98593.77
2024-04-15T07:48:27.727Z,98585.52
2024-04-15T07:50:56.380Z,98577.46
2024-04-15T07:53:24.719Z,98567.75
2024-04-15T07:55:52.803Z,98563.29
2024-04-15T07:58:21.314Z,98561.09
2024-04-15T08:00:49.588Z,98562.32
2024-04-15T08:03:17.690Z,98556.21
2024-04-15T08:05:45.820Z,98549.59
2024-04-15T08:08:13.932Z,98557.71
2024-04-15T08:10:42.136Z,98550.83
2024-04-15T08:13:10.250Z,98540.77
2024-04-15T08:15:38.583Z,98540.66
2024-04-15T08:18:06.865Z,98549.91
2024-04-15T08:20:34.872Z,98560.58
2024-04-15T08:23:03.193Z,98554.76
2024-04-15T08:25:31.394Z,98553.91
2024-04-15T08:27:59.493Z,98558.81
2024-04-15T08:30:28.033Z,98564.98
2024-04-15T08:32:56.945Z,98562.40
2024-04-15T08:35:25.071Z,98546.48
2024-04-15T08:37:53.277Z,98543.13
2024-04-15T08:40:21.541Z,98544.02
2024-04-15T08:42:51.706Z,98532.60
2024-04-15T08:45:21.809Z,98525.77
2024-04-15T08:47:54.531Z,98529.61
2024-04-15T08:50:24.775Z,98546.96
2024-04-15T08:52:57.012Z,98551.84
2024-04-15T08:55:27.625Z,98559.90
2024-04-15T08:57:56.856Z,98561.02
2024-04-15T09:00:25.308Z,98545.59
2024-04-15T09:02:53.909Z,98539.55
2024-04-15T09:05:22.420Z,98534.35
2024-04-15T09:07:51.093Z,98526.54
2024-04-15T09:10:20.044Z,98519.83
2024-04-15T09:12:49.285Z,98517.61
2024-04-15T09:15:22.023Z,98515.56
2024-04-15T09:17:53.069Z,98516.92
2024-04-15T09:20:34.981Z,98522.96
2024-04-15T09:23:11.518Z,98516.62
2024-04-15T09:25:40.156Z,98514.90
2024-04-15T09:28:08.397Z,98507.37
2024-04-15T09:30:37.287Z,98499.20
2024-04-15T09:33:06.978Z,98492.95
2024-04-15T09:35:35.240Z,98492.63
2024-04-15T09:38:04.364Z,98491.25
2024-04-15T09:40:35.597Z,98503.36
2024-04-15T09:43:04.172Z,98508.42
2024-04-15T09:45:32.979Z,98508.05
2024-04-15T09:48:02.105Z,98515.20
2024-04-15T09:50:30.387Z,98530.62
2024-04-15T09:53:00.342Z,98537.58
2024-04-15T09:55:37.021Z,98559.86
2024-04-15T09:58:05.476Z,98566.66
2024-04-15T10:00:39.421Z,98554.44
2024-04-15T10:03:19.504Z,98551.15
2024-04-15T10:05:52.669Z,98559.65
2024-04-15T10:08:21.129Z,98565.98
2024-04-15T10:10:49.931Z,98568.77
2024-04-15T10:13:18.990Z,98559.98
2024-04-15T10:15:47.592Z,98542.95
2024-04-15T10:18:17.874Z,98538.48
2024-04-15T10:20:47.530Z,98542.80
2024-04-15T10:23:19.056Z,98560.54
2024-04-15T10:25:49.859Z,98567.27
2024-04-15T10:28:19.401Z,98555.40
2024-04-15T10:30:48.186Z,98541.67
2024-04-15T10:33:21.372Z,98546.16
2024-04-15T10:35:53.653Z,98538.11
2024-04-15T10:38:21.706Z,98518.29
2024-04-15T10:40:50.328Z,98499.02
2024-04-15T10:43:19.953Z,98505.45
2024-04-15T10:45:49.663Z,98510.64
2024-04-15T10:48:18.100Z,98508.65
2024-04-15T10:50:46.270Z,98507.35
2024-04-15T10:53:16.279Z,98509.20
2024-04-15T10:55:44.457Z,98511.94
2024-04-15T10:58:13.864Z,98510.93
2024-04-15T11:00:45.665Z,98506.23
2024-04-15T11:03:14.384Z,98499.92
2024-04-15T11:05:43.710Z,98502.13
2024-04-15T11:08:14.526Z,98511.35
2024-04-15T11:10:43.827Z,98521.62
2024-04-15T11:13:12.488Z,98529.52
2024-04-15T11:15:41.482Z,98532.78
2024-04-15T11:18:14.404Z,98530.81
2024-04-15T11:20:42.655Z,98519.23
2024-04-15T11:23:11.765Z,98519.98
2024-04-15T11:25:43.665Z,98520.80
2024-04-15T11:28:14.931Z,98520.41
2024-04-15T11:30:46.113Z,98529.08
2024-04-15T11:33:15.266Z,98527.84
2024-04-15T11:35:53.806Z,98530.36
2024-04-15T11:38:23.109Z,98535.52
2024-04-15T11:40:53.189Z,98530.13
2024-04-15T11:43:21.988Z,98519.41
2024-04-15T11:45:55.197Z,98522.73
2024-04-15T11:48:25.731Z,98514.63
2024-04-15T11:50:55.189Z,98505.30
2024-04-15T11:53:25.486Z,98490.83
2024-04-15T11:55:54.952Z,98468.10
2024-04-15T11:58:23.950Z,98453.68
2024-04-15T12:00:53.255Z,98450.20
2024-04-15T12:03:22.562Z,98451.41
2024-04-15T12:05:54.553Z,98464.36
2024-04-15T12:08:22.910Z,98456.58
2024-04-15T12:10:52.810Z,98442.47
2024-04-15T12:13:21.036Z,98441.86
2024-04-15T12:15:49.259Z,98435.88
2024-04-15T12:18:17.716Z,98430.93
2024-04-15T12:20:45.840Z,98432.25
2024-04-15T12:23:13.922Z,98425.27
2024-04-15T12:25:42.210Z,98422.82
2024-04-15T12:28:10.605Z,98418.39
2024-04-15T12:30:39.600Z,98421.45
2024-04-15T12:33:07.744Z,98421.25
2024-04-15T12:35:35.976Z,98407.27
2024-04-15T12:38:04.279Z,98400.34
2024-04-15T12:40:32.338Z,98398.64
2024-04-15T12:43:00.626Z,98396.05
2024-04-15T12:45:28.762Z,98392.54
2024-04-15T12:47:56.956Z,98391.23
2024-04-15T12:50:25.364Z,98386.13
2024-04-15T12:52:53.822Z,98383.66
2024-04-15T12:55:21.957Z,98380.69
2024-04-15T12:57:50.218Z,98377.08
2024-04-15T13:00:18.410Z,98370.56
2024-04-15T13:02:46.601Z,98361.57
2024-04-15T13:05:15.092Z,98347.70
2024-04-15T13:07:43.228Z,98342.44
2024-04-15T13:10:11.653Z,98337.73
2024-04-15T13:12:40.097Z,98325.34
2024-04-15T13:15:09.681Z,98322.30
2024-04-15T13:18:06.568Z,98318.95
2024-04-15T13:20:47.549Z,98311.27
2024-04-15T13:23:36.468Z,98307.67
2024-04-15T13:26:29.477Z,98307.20
2024-04-15T13:32:21.140Z,98298.91
2024-04-15T13:34:54.741Z,98290.23
2024-04-15T13:37:32.664Z,98284.33
2024-04-15T13:45:51.597Z,98266.10
2024-04-15T13:48:21.098Z,98265.61
2024-04-15T13:50:50.144Z,98274.87
2024-04-15T13:53:18.645Z,98269.58
2024-04-15T13:55:47.384Z,98262.37
2024-04-15T13:58:16.093Z,98259.45
2024-04-15T14:00:45.367Z,98255.14
2024-04-15T14:03:14.047Z,98244.32
2024-04-15T14:05:42.534Z,98231.70
2024-04-15T14:08:11.400Z,98223.44
2024-04-15T14:10:39.485Z,98238.37
2024-04-15T14:13:07.881Z,98252.13
2024-04-15T14:15:36.948Z,98255.38
2024-04-15T14:18:05.349Z,98270.65
2024-04-15T14:20:33.438Z,98271.38
2024-04-15T14:23:01.598Z,98270.73
2024-04-15T14:25:29.903Z,98267.36
2024-04-15T14:27:58.283Z,98270.16
2024-04-15T14:30:26.722Z,98266.06
2024-04-15T14:32:55.024Z,98264.23
2024-04-15T14:35:23.467Z,98256.48
2024-04-15T14:37:52.801Z,98252.55
2024-04-15T14:40:27.171Z,98245.45
2024-04-15T14:42:57.110Z,98243.25
2024-04-15T14:45:25.227Z,98242.27
2024-04-15T14:47:54.484Z,98244.36
2024-04-15T14:50:22.717Z,98245.25
2024-04-15T14:52:50.801Z,98253.23
2024-04-15T14:55:18.877Z,98256.04
2024-04-15T14:57:47.229Z,98251.33
2024-04-15T15:00:17.787Z,98248.05
2024-04-15T15:02:45.915Z,98240.66
2024-04-15T15:05:14.145Z,98238.07
2024-04-15T15:07:42.313Z,98265.30
2024-04-15T15:10:10.529Z,98274.38
2024-04-15T15:12:38.729Z,98266.50
2024-04-15T15:15:07.160Z,98265.63
2024-04-15T15:17:35.306Z,98254.20
2024-04-15T15:20:05.230Z,98235.96
2024-04-15T15:22:33.385Z,98221.40
2024-04-15T15:25:01.484Z,98203.50
2024-04-15T15:27:29.701Z,98191.24
2024-04-15T15:29:57.913Z,98197.91
2024-04-15T15:32:25.938Z,98178.13
2024-04-15T15:34:54.057Z,98167.73
2024-04-15T15:37:22.288Z,98186.13
2024-04-15T15:39:50.454Z,98169.16
2024-04-15T15:42:18.704Z,98179.05
2024-04-15T15:44:46.712Z,98176.86
2024-04-15T15:47:14.690Z,98176.95
2024-04-15T15:49:42.782Z,98170.07
2024-04-15T15:52:12.587Z,98153.29
2024-04-15T15:54:40.560Z,98137.30
2024-04-15T15:57:08.849Z,98128.48
2024-04-15T15:59:36.831Z,98138.23
2024-04-15T16:02:05.142Z,98147.35
2024-04-15T16:04:33.427Z,98148.34
2024-04-15T16:07:05.179Z,98140.39
2024-04-15T16:09:35.616Z,98133.11
2024-04-15T16:12:04.389Z,98135.60
2024-04-15T16:14:32.373Z,98115.23
2024-04-15T16:17:00.385Z,98112.04
2024-04-15T16:19:28.493Z,98110.27
2024-04-15T16:21:56.577Z,98101.23
2024-04-15T16:24:26.411Z,98097.20
2024-04-15T16:26:54.548Z,98089.81
2024-04-15T16:29:22.546Z,98095.67
2024-04-15T16:31:50.439Z,98097.13
2024-04-15T16:34:18.665Z,98093.39
2024-04-15T16:36:48.296Z,98098.67
2024-04-15T16:39:17.500Z,98097.77
2024-04-15T16:41:45.528Z,98097.27
2024-04-15T16:44:13.510Z,98099.30
2024-04-15T16:46:41.438Z,98089.80
2024-04-15T16:49:09.502Z,98082.39
2024-04-15T16:51:37.407Z,98080.09
2024-04-15T16:54:05.342Z,98080.52
2024-04-15T16:56:33.786Z,98073.05
2024-04-15T16:59:02.116Z,98069.30
2024-04-15T17:01:30.070Z,98060.34
2024-04-15T17:03:58.151Z,98066.48
2024-04-15T17:06:26.306Z,98075.52
2024-04-15T17:08:55.044Z,98078.08
2024-04-15T17:11:23.138Z,98076.91
2024-04-15T17:13:52.140Z,98070.21
2024-04-15T17:16:20.142Z,98057.48
2024-04-15T17:18:49.240Z,98055.42
2024-04-15T17:21:18.270Z,98062.81
2024-04-15T17:23:46.214Z,98059.45
2024-04-15T17:26:14.795Z,98045.42
2024-04-15T17:28:43.845Z,98045.52
2024-04-15T17:31:11.807Z,98043.17
2024-04-15T17:33:40.059Z,98026.27
2024-04-15T17:36:08.821Z,98013.77
2024-04-15T17:38:37.240Z,98022.39
2024-04-15T17:41:05.366Z,98032.88
2024-04-15T17:43:33.351Z,98028.48
2024-04-15T17:46:01.596Z,98031.69
2024-04-15T17:48:29.639Z,98041.05
2024-04-15T17:50:57.587Z,98039.29
2024-04-15T17:53:25.663Z,98022.34
2024-04-15T17:55:53.700Z,98001.71
2024-04-15T17:58:22.056Z,97988.15
2024-04-15T18:00:49.984Z,97985.31
2024-04-15T18:03:18.108Z,97981.66
2024-04-15T18:05:46.136Z,97977.90
2024-04-15T18:08:14.097Z,97983.42
2024-04-15T18:10:42.266Z,98001.77
2024-04-15T18:13:10.380Z,98016.23
2024-04-15T18:15:38.666Z,98008.73
2024-04-15T18:18:06.963Z,97996.94
2024-04-15T18:20:34.906Z,97974.99
2024-04-15T18:23:02.943Z,97968.46
2024-04-15T18:25:31.103Z,97966.33
2024-04-15T18:27:59.177Z,97957.23
2024-04-15T18:30:27.153Z,97951.59
2024-04-15T18:32:55.307Z,97969.66
2024-04-15T18:35:23.245Z,97993.44
2024-04-15T18:37:51.454Z,97974.02
2024-04-15T18:40:19.643Z,97973.27
2024-04-15T18:42:47.678Z,97973.48
2024-04-15T18:45:15.692Z,97973.77
2024-04-15T18:47:43.928Z,97971.25
2024-04-15T18:50:12.487Z,97962.45
2024-04-15T18:52:40.506Z,97952.21
2024-04-15T18:55:08.596Z,97951.20
2024-04-15T18:57:36.632Z,97955.80
2024-04-15T19:00:05.812Z,97957.67
2024-04-15T19:02:34.043Z,97956.29
2024-04-15T19:05:02.022Z,97949.55
2024-04-15T19:07:30.058Z,97942.08
2024-04-15T19:09:58.270Z,97936.12
2024-04-15T19:12:26.309Z,97927.95
2024-04-15T19:15:06.920Z,97927.73
2024-04-15T19:17:42.110Z,97921.52
2024-04-15T19:20:10.463Z,97910.77
2024-04-15T19:22:38.507Z,97901.61
2024-04-15T19:25:09.639Z,97901.90
2024-04-15T19:27:37.933Z,97902.95
2024-04-15T19:30:06.448Z,97892.47
2024-04-15T19:32:36.479Z,97896.23
2024-04-15T19:35:05.636Z,97892.35
2024-04-15T19:37:33.831Z,97889.66
2024-04-15T19:40:02.138Z,97888.48
2024-04-15T19:42:30.087Z,97882.41
2024-04-15T19:44:58.032Z,97878.37
2024-04-15T19:47:26.077Z,97880.05
2024-04-15T19:49:54.002Z,97888.67
2024-04-15T19:52:22.052Z,97903.07
2024-04-15T19:54:49.971Z,97907.41
2024-04-15T19:57:17.943Z,97903.66
2024-04-15T19:59:45.831Z,97894.46
2024-04-15T20:02:13.774Z,97885.90
2024-04-15T20:04:41.829Z,97883.22
2024-04-15T20:07:10.295Z,97875.78
2024-04-15T20:09:40.741Z,97875.86
2024-04-15T20:12:08.657Z,97869.88
2024-04-15T20:14:36.542Z,97861.62
2024-04-15T20:17:21.206Z,97860.23
2024-04-15T20:19:56.445Z,97862.06
2024-04-15T20:22:24.556Z,97861.38
2024-04-15T20:24:52.521Z,97856.88
2024-04-15T20:27:20.533Z,97854.01
2024-04-15T20:29:48.619Z,97843.55
2024-04-15T20:32:16.463Z,97826.66
2024-04-15T20:34:44.366Z,97816.90
2024-04-15T20:37:12.387Z,97804.77
2024-04-15T20:39:40.525Z,97804.76
2024-04-15T20:42:08.361Z,97808.64
2024-04-15T20:44:36.312Z,97801.14
2024-04-15T20:47:04.333Z,97798.76
2024-04-15T20:49:32.324Z,97795.30
2024-04-15T20:52:00.495Z,97793.44
2024-04-15T20:54:28.420Z,97800.64
2024-04-15T20:56:56.315Z,97803.30
2024-04-15T20:59:24.264Z,97798.03
2024-04-15T21:01:52.215Z,97783.75
2024-04-15T21:04:24.720Z,97769.08
2024-04-15T21:06:53.669Z,97760.89
2024-04-15T21:09:21.626Z,97775.97
2024-04-15T21:11:49.454Z,97787.52
2024-04-15T21:14:17.376Z,97794.46
2024-04-15T21:16:45.769Z,97795.48
2024-04-15T21:19:13.689Z,97789.48
2024-04-15T21:21:41.603Z,97783.73
2024-04-15T21:24:11.745Z,97788.83
2024-04-15T21:26:39.806Z,97788.83
2024-04-15T21:29:07.806Z,97785.28
2024-04-15T21:31:35.694Z,97778.40
2024-04-15T21:34:04.491Z,97771.27
2024-04-15T21:36:34.267Z,97775.73
2024-04-15T21:39:02.171Z,97774.60
2024-04-15T21:41:31.266Z,97772.13
2024-04-15T21:43:59.402Z,97773.46
2024-04-15T21:46:28.488Z,97764.35
2024-04-15T21:48:56.463Z,97762.45
2024-04-15T21:51:26.020Z,97768.67
2024-04-15T21:53:53.913Z,97772.15
2024-04-15T21:56:21.845Z,97767.38
2024-04-15T21:58:49.933Z,97765.44
2024-04-15T22:01:17.971Z,97747.12
2024-04-15T22:03:45.978Z,97732.89
2024-04-15T22:06:14.030Z,97737.92
2024-04-15T22:08:42.519Z,97737.58
2024-04-15T22:11:10.500Z,97728.45
2024-04-15T22:13:38.668Z,97714.05
2024-04-15T22:16:10.254Z,97711.39
2024-04-15T22:18:38.287Z,97711.51
2024-04-15T22:21:06.309Z,97706.36
2024-04-15T22:23:34.256Z,97700.02
2024-04-15T22:26:02.345Z,97692.33
2024-04-15T22:28:30.463Z,97684.90
2024-04-15T22:30:58.374Z,97682.99
2024-04-15T22:33:26.532Z,97661.90
2024-04-15T22:35:54.597Z,97626.00
2024-04-15T22:38:22.531Z,97600.39
2024-04-15T22:40:50.823Z,97590.63
2024-04-15T22:43:21.367Z,97590.30
2024-04-15T22:45:49.273Z,97594.45
2024-04-15T22:48:18.733Z,97592.92
2024-04-15T22:50:47.008Z,97593.95
2024-04-15T22:53:14.898Z,97600.70
2024-04-15T22:55:43.032Z,97594.17
2024-04-15T22:58:11.035Z,97591.38
2024-04-15T23:00:39.008Z,97606.02
2024-04-15T23:03:06.943Z,97622.39
2024-04-15T23:05:35.024Z,97623.70
2024-04-15T23:08:03.105Z,97630.11
2024-04-15T23:10:35.282Z,97634.76
2024-04-15T23:13:03.479Z,97620.38
2024-04-15T23:15:31.391Z,97608.73
2024-04-15T23:17:59.324Z,97598.36
2024-04-15T23:20:27.359Z,97592.73
2024-04-15T23:22:56.316Z,97593.80
2024-04-15T23:25:24.248Z,97591.59
2024-04-15T23:27:52.248Z,97590.08
2024-04-15T23:30:20.233Z,97585.17
2024-04-15T23:32:48.273Z,97579.08
2024-04-15T23:35:16.347Z,97576.31
2024-04-15T23:37:44.752Z,97582.52
2024-04-15T23:40:12.753Z,97590.51
2024-04-15T23:42:40.814Z,97597.83
2024-04-15T23:45:27.173Z,97598.39
2024-04-15T23:48:15.732Z,97595.77
2024-04-15T23:51:02.612Z,97596.54
2024-04-15T23:53:49.438Z,97594.83
2024-04-15T23:56:36.146Z,97592.20
2024-04-15T23:59:04.371Z,97602.79
